Time,TemperatureF,DewpointF,PressureIn,WindDirection,WindDirectionDegrees,WindSpeedMPH,WindSpeedGustMPH,Humidity,HourlyPrecipIn,Conditions,Clouds,dailyrainin,SoftwareType,DateUTC
2013-06-02 00:01:00,30.0,21.0,30.18,ESE,116,0.0,-999.0,69,-99.99,,,-99.99,,2013-06-02 06:01:00,
2013-06-02 00:12:00,30.0,22.0,30.18,ESE,116,0.0,-999.0,71,-99.99,,,-99.99,,2013-06-02 06:12:00,
2013-06-02 00:21:00,30.0,22.0,30.18,ESE,116,0.0,-999.0,71,-99.99,,,-99.99,,2013-06-02 06:21:00,
2013-06-02 00:32:00,29.0,21.0,30.17,ESE,116,0.0,-999.0,72,-99.99,,,-99.99,,2013-06-02 06:32:00,
2013-06-02 00:42:00,29.0,21.0,30.17,ESE,116,0.0,-999.0,72,-99.99,,,-99.99,,2013-06-02 06:42:00,
2013-06-02 00:52:00,28.0,21.0,30.16,ESE,116,0.0,-999.0,74,-99.99,,,-99.99,,2013-06-02 06:52:00,
2013-06-02 01:01:00,28.0,21.0,30.16,ESE,116,0.0,-999.0,74,-99.99,,,-99.99,,2013-06-02 07:01:00,
2013-06-02 01:11:00,28.0,21.0,30.16,ESE,116,0.0,-999.0,74,-99.99,,,-99.99,,2013-06-02 07:11:00,
2013-06-02 01:21:00,27.0,20.0,30.16,ESE,116,0.0,-999.0,75,-99.99,,,-99.99,,2013-06-02 07:21:00,
2013-06-02 01:32:00,27.0,20.0,30.16,ESE,116,0.0,-999.0,76,-99.99,,,-99.99,,2013-06-02 07:32:00,
2013-06-02 01:42:00,27.0,21.0,30.16,ESE,116,0.0,-999.0,77,-99.99,,,-99.99,,2013-06-02 07:42:00,
2013-06-02 01:52:00,27.0,21.0,30.16,ESE,116,0.0,-999.0,77,-99.99,,,-99.99,,2013-06-02 07:52:00,
2013-06-02 02:01:00,27.0,21.0,30.16,ESE,116,0.0,-999.0,77,-99.99,,,-99.99,,2013-06-02 08:01:00,
2013-06-02 02:11:00,27.0,21.0,30.16,ESE,116,0.0,-999.0,77,-99.99,,,-99.99,,2013-06-02 08:11:00,
2013-06-02 02:21:00,26.0,20.0,30.16,ESE,116,0.0,-999.0,78,-99.99,,,-99.99,,2013-06-02 08:21:00,
2013-06-02 02:32:00,26.0,20.0,30.16,ESE,116,0.0,-999.0,78,-99.99,,,-99.99,,2013-06-02 08:32:00,
2013-06-02 02:41:00,26.0,20.0,30.16,ESE,116,0.0,-999.0,78,-99.99,,,-99.99,,2013-06-02 08:41:00,
2013-06-02 02:52:00,26.0,20.0,30.16,ESE,116,0.0,-999.0,79,-99.99,,,-99.99,,2013-06-02 08:52:00,
2013-06-02 03:01:00,26.0,20.0,30.16,ESE,116,0.0,-999.0,79,-99.99,,,-99.99,,2013-06-02 09:01:00,
2013-06-02 03:11:00,26.0,20.0,30.16,ESE,116,0.0,-999.0,79,-99.99,,,-99.99,,2013-06-02 09:11:00,
2013-06-02 03:21:00,26.0,20.0,30.15,ESE,116,0.0,-999.0,79,-99.99,,,-99.99,,2013-06-02 09:21:00,
2013-06-02 03:33:00,26.0,21.0,30.15,ESE,116,0.0,-999.0,80,-99.99,,,-99.99,,2013-06-02 09:33:00,
2013-06-02 03:42:00,26.0,21.0,30.15,ESE,116,0.0,-999.0,80,-99.99,,,-99.99,,2013-06-02 09:42:00,
2013-06-02 03:53:00,26.0,21.0,30.14,ESE,116,0.0,-999.0,81,-99.99,,,-99.99,,2013-06-02 09:53:00,
2013-06-02 04:02:00,25.0,20.0,30.14,ESE,116,0.0,-999.0,81,-99.99,,,-99.99,,2013-06-02 10:02:00,
2013-06-02 04:12:00,25.0,20.0,30.14,ESE,116,0.0,-999.0,81,-99.99,,,-99.99,,2013-06-02 10:12:00,
2013-06-02 04:22:00,25.0,20.0,30.14,ESE,116,0.0,-999.0,82,-99.99,,,-99.99,,2013-06-02 10:22:00,
2013-06-02 04:32:00,25.0,20.0,30.13,ESE,116,0.0,-999.0,82,-99.99,,,-99.99,,2013-06-02 10:32:00,
2013-06-02 04:42:00,25.0,20.0,30.13,ESE,116,0.0,-999.0,82,-99.99,,,-99.99,,2013-06-02 10:42:00,
2013-06-02 04:52:00,25.0,20.0,30.13,ESE,116,0.0,-999.0,82,-99.99,,,-99.99,,2013-06-02 10:52:00,
2013-06-02 05:02:00,25.0,21.0,30.12,ESE,116,0.0,-999.0,83,-99.99,,,-99.99,,2013-06-02 11:02:00,
2013-06-02 05:12:00,25.0,21.0,30.12,ESE,116,0.0,-999.0,83,-99.99,,,-99.99,,2013-06-02 11:12:00,
2013-06-02 05:21:00,24.0,20.0,30.12,ESE,116,0.0,-999.0,83,-99.99,,,-99.99,,2013-06-02 11:21:00,
2013-06-02 05:32:00,24.0,20.0,30.13,ESE,116,0.0,-999.0,84,-99.99,,,-99.99,,2013-06-02 11:32:00,
2013-06-02 05:42:00,24.0,20.0,30.13,ESE,116,0.0,-999.0,84,-99.99,,,-99.99,,2013-06-02 11:42:00,
2013-06-02 05:52:00,24.0,20.0,30.13,ESE,116,0.0,-999.0,84,-99.99,,,-99.99,,2013-06-02 11:52:00,
2013-06-02 06:01:00,24.0,20.0,30.13,ESE,116,0.0,-999.0,85,-99.99,,,-99.99,,2013-06-02 12:01:00,
2013-06-02 06:11:00,24.0,20.0,30.13,ESE,116,0.0,-999.0,85,-99.99,,,-99.99,,2013-06-02 12:11:00,
2013-06-02 06:21:00,24.0,20.0,30.13,ESE,116,0.0,-999.0,85,-99.99,,,-99.99,,2013-06-02 12:21:00,
2013-06-02 06:32:00,24.0,20.0,30.13,ESE,116,0.0,-999.0,85,-99.99,,,-99.99,,2013-06-02 12:32:00,
2013-06-02 06:42:00,24.0,20.0,30.13,ESE,116,0.0,-999.0,85,-99.99,,,-99.99,,2013-06-02 12:42:00,
2013-06-02 06:52:00,24.0,20.0,30.14,ESE,116,0.0,-999.0,86,-99.99,,,-99.99,,2013-06-02 12:52:00,
2013-06-02 07:01:00,24.0,21.0,30.14,ESE,116,0.0,-999.0,87,-99.99,,,-99.99,,2013-06-02 13:01:00,
2013-06-02 07:11:00,24.0,21.0,30.14,ESE,116,0.0,-999.0,87,-99.99,,,-99.99,,2013-06-02 13:11:00,
2013-06-02 07:21:00,25.0,22.0,30.14,ESE,116,0.0,-999.0,88,-99.99,,,-99.99,,2013-06-02 13:21:00,
2013-06-02 07:32:00,27.0,24.0,30.14,ESE,116,0.0,-999.0,88,-99.99,,,-99.99,,2013-06-02 13:32:00,
2013-06-02 07:42:00,27.0,24.0,30.14,ESE,116,0.0,-999.0,88,-99.99,,,-99.99,,2013-06-02 13:42:00,
2013-06-02 07:52:00,29.0,26.0,30.14,ESE,116,0.0,-999.0,87,-99.99,,,-99.99,,2013-06-02 13:52:00,
2013-06-02 08:02:00,32.0,27.0,30.13,ESE,116,0.0,-999.0,81,-99.99,,,-99.99,,2013-06-02 14:02:00,
2013-06-02 08:11:00,32.0,27.0,30.13,ESE,116,0.0,-999.0,81,-99.99,,,-99.99,,2013-06-02 14:11:00,
2013-06-02 08:21:00,36.0,28.0,30.13,ESE,116,0.0,-999.0,73,-99.99,,,-99.99,,2013-06-02 14:21:00,
2013-06-02 08:32:00,39.0,28.0,30.12,SE,125,0.0,-999.0,65,-99.99,,,-99.99,,2013-06-02 14:32:00,
2013-06-02 08:42:00,39.0,28.0,30.12,SE,125,0.0,-999.0,65,-99.99,,,-99.99,,2013-06-02 14:42:00,
2013-06-02 08:52:00,42.0,29.0,30.12,WNW,295,0.0,-999.0,59,-99.99,,,-99.99,,2013-06-02 14:52:00,
2013-06-02 09:01:00,45.0,29.0,30.11,WNW,284,0.0,-999.0,54,-99.99,,,-99.99,,2013-06-02 15:01:00,
2013-06-02 09:11:00,45.0,29.0,30.11,WNW,284,0.0,-999.0,54,-99.99,,,-99.99,,2013-06-02 15:11:00,
2013-06-02 09:21:00,48.0,28.0,30.10,WNW,284,0.0,-999.0,46,-99.99,,,-99.99,,2013-06-02 15:21:00,
2013-06-02 09:32:00,50.0,19.0,30.10,SSW,213,1.0,-999.0,29,-99.99,,,-99.99,,2013-06-02 15:32:00,
2013-06-02 09:43:00,53.0,16.0,30.10,East,87,2.0,-999.0,23,-99.99,,,-99.99,,2013-06-02 15:43:00,
2013-06-02 09:53:00,53.0,16.0,30.10,East,87,2.0,-999.0,23,-99.99,,,-99.99,,2013-06-02 15:53:00,
2013-06-02 10:03:00,55.0,17.0,30.09,East,88,2.0,-999.0,22,-99.99,,,-99.99,,2013-06-02 16:03:00,
2013-06-02 10:13:00,55.0,17.0,30.09,East,88,2.0,-999.0,22,-99.99,,,-99.99,,2013-06-02 16:13:00,
2013-06-02 10:23:00,55.0,17.0,30.09,ENE,69,2.0,-999.0,22,-99.99,,,-99.99,,2013-06-02 16:23:00,
2013-06-02 10:33:00,56.0,17.0,30.09,East,101,2.0,-999.0,21,-99.99,,,-99.99,,2013-06-02 16:33:00,
2013-06-02 10:42:00,56.0,17.0,30.09,East,101,2.0,-999.0,21,-99.99,,,-99.99,,2013-06-02 16:42:00,
2013-06-02 10:52:00,56.0,19.0,30.08,ENE,59,3.0,-999.0,23,-99.99,,,-99.99,,2013-06-02 16:52:00,
2013-06-02 11:02:00,57.0,19.0,30.08,ENE,67,2.0,-999.0,22,-99.99,,,-99.99,,2013-06-02 17:02:00,
2013-06-02 11:12:00,57.0,19.0,30.08,ENE,67,2.0,-999.0,22,-99.99,,,-99.99,,2013-06-02 17:12:00,
2013-06-02 11:22:00,58.0,20.0,30.08,East,84,3.0,-999.0,23,-99.99,,,-99.99,,2013-06-02 17:22:00,
2013-06-02 11:32:00,59.0,20.0,30.07,ENE,78,2.0,-999.0,22,-99.99,,,-99.99,,2013-06-02 17:32:00,
2013-06-02 11:42:00,59.0,20.0,30.06,ESE,118,3.0,-999.0,22,-99.99,,,-99.99,,2013-06-02 17:42:00,
2013-06-02 11:52:00,59.0,20.0,30.06,ESE,118,3.0,-999.0,22,-99.99,,,-99.99,,2013-06-02 17:52:00,
2013-06-02 12:01:00,60.0,22.0,30.06,ENE,76,1.0,-999.0,23,-99.99,,,-99.99,,2013-06-02 18:01:00,
2013-06-02 12:11:00,60.0,22.0,30.06,ENE,76,1.0,-999.0,23,-99.99,,,-99.99,,2013-06-02 18:11:00,
2013-06-02 12:21:00,60.0,21.0,30.05,NNE,22,3.0,-999.0,22,-99.99,,,-99.99,,2013-06-02 18:21:00,
2013-06-02 12:32:00,61.0,23.0,30.04,SW,236,3.0,-999.0,23,-99.99,,,-99.99,,2013-06-02 18:32:00,
2013-06-02 12:42:00,62.0,23.0,30.03,East,87,2.0,-999.0,22,-99.99,,,-99.99,,2013-06-02 18:42:00,
2013-06-02 12:52:00,62.0,23.0,30.03,East,87,2.0,-999.0,22,-99.99,,,-99.99,,2013-06-02 18:52:00,
2013-06-02 13:01:00,63.0,21.0,30.03,ENE,78,3.0,-999.0,20,-99.99,,,-99.99,,2013-06-02 19:01:00,
2013-06-02 13:11:00,63.0,21.0,30.03,ENE,78,3.0,-999.0,20,-99.99,,,-99.99,,2013-06-02 19:11:00,
2013-06-02 13:21:00,63.0,20.0,30.02,NE,47,2.0,-999.0,19,-99.99,,,-99.99,,2013-06-02 19:21:00,
2013-06-02 13:32:00,64.0,22.0,30.01,South,189,2.0,-999.0,20,-99.99,,,-99.99,,2013-06-02 19:32:00,
2013-06-02 13:42:00,64.0,22.0,30.01,South,189,2.0,-999.0,20,-99.99,,,-99.99,,2013-06-02 19:42:00,
2013-06-02 13:52:00,64.0,22.0,30.01,West,276,1.0,-999.0,20,-99.99,,,-99.99,,2013-06-02 19:52:00,
2013-06-02 14:02:00,65.0,23.0,29.99,West,273,2.0,-999.0,20,-99.99,,,-99.99,,2013-06-02 20:02:00,
2013-06-02 14:11:00,65.0,23.0,29.99,West,273,2.0,-999.0,20,-99.99,,,-99.99,,2013-06-02 20:11:00,
2013-06-02 14:22:00,65.0,22.0,29.98,ESE,120,2.0,-999.0,19,-99.99,,,-99.99,,2013-06-02 20:22:00,
2013-06-02 14:32:00,66.0,20.0,29.98,ENE,77,2.0,-999.0,17,-99.99,,,-99.99,,2013-06-02 20:32:00,
2013-06-02 14:42:00,66.0,20.0,29.98,ENE,77,2.0,-999.0,17,-99.99,,,-99.99,,2013-06-02 20:42:00,
2013-06-02 14:52:00,65.0,20.0,29.98,SW,224,2.0,-999.0,18,-99.99,,,-99.99,,2013-06-02 20:52:00,
2013-06-02 15:01:00,65.0,23.0,29.98,SE,146,2.0,-999.0,20,-99.99,,,-99.99,,2013-06-02 21:01:00,
2013-06-02 15:11:00,65.0,23.0,29.98,SE,146,2.0,-999.0,20,-99.99,,,-99.99,,2013-06-02 21:11:00,
2013-06-02 15:21:00,65.0,23.0,29.97,ESE,115,3.0,-999.0,20,-99.99,,,-99.99,,2013-06-02 21:21:00,
2013-06-02 15:33:00,65.0,22.0,29.96,West,265,1.0,-999.0,19,-99.99,,,-99.99,,2013-06-02 21:33:00,
2013-06-02 15:42:00,65.0,22.0,29.96,West,265,1.0,-999.0,19,-99.99,,,-99.99,,2013-06-02 21:42:00,
2013-06-02 15:53:00,65.0,19.0,29.96,East,79,3.0,-999.0,17,-99.99,,,-99.99,,2013-06-02 21:53:00,
2013-06-02 16:03:00,64.0,20.0,29.96,SSW,194,2.0,-999.0,18,-99.99,,,-99.99,,2013-06-02 22:03:00,
2013-06-02 16:12:00,64.0,20.0,29.96,SSW,194,2.0,-999.0,18,-99.99,,,-99.99,,2013-06-02 22:12:00,
2013-06-02 16:23:00,64.0,20.0,29.95,ESE,102,2.0,-999.0,18,-99.99,,,-99.99,,2013-06-02 22:23:00,
2013-06-02 16:33:00,64.0,18.0,29.94,NE,55,3.0,-999.0,17,-99.99,,,-99.99,,2013-06-02 22:33:00,
2013-06-02 16:42:00,64.0,18.0,29.94,NE,55,3.0,-999.0,17,-99.99,,,-99.99,,2013-06-02 22:42:00,
2013-06-02 16:52:00,64.0,20.0,29.94,South,178,2.0,-999.0,18,-99.99,,,-99.99,,2013-06-02 22:52:00,
2013-06-02 17:02:00,63.0,20.0,29.93,NE,43,2.0,-999.0,19,-99.99,,,-99.99,,2013-06-02 23:02:00,
2013-06-02 17:12:00,63.0,20.0,29.93,NE,43,2.0,-999.0,19,-99.99,,,-99.99,,2013-06-02 23:12:00,
2013-06-02 17:22:00,63.0,20.0,29.93,ENE,77,1.0,-999.0,19,-99.99,,,-99.99,,2013-06-02 23:22:00,
2013-06-02 17:32:00,62.0,20.0,29.95,ENE,70,1.0,-999.0,20,-99.99,,,-99.99,,2013-06-02 23:32:00,
2013-06-02 17:42:00,62.0,20.0,29.95,ENE,70,1.0,-999.0,20,-99.99,,,-99.99,,2013-06-02 23:42:00,
2013-06-02 17:52:00,61.0,18.0,29.94,East,96,2.0,-999.0,19,-99.99,,,-99.99,,2013-06-02 23:52:00,
2013-06-02 18:01:00,60.0,19.0,29.94,ENE,69,1.0,-999.0,20,-99.99,,,-99.99,,2013-06-03 00:01:00,
2013-06-02 18:11:00,59.0,18.0,29.93,SSW,195,1.0,-999.0,20,-99.99,,,-99.99,,2013-06-03 00:11:00,
2013-06-02 18:21:00,59.0,18.0,29.93,SSW,195,1.0,-999.0,20,-99.99,,,-99.99,,2013-06-03 00:21:00,
2013-06-02 18:32:00,59.0,19.0,29.93,NE,55,0.0,-999.0,21,-99.99,,,-99.99,,2013-06-03 00:32:00,
2013-06-02 18:42:00,58.0,19.0,29.92,ESE,115,0.0,-999.0,22,-99.99,,,-99.99,,2013-06-03 00:42:00,
2013-06-02 18:51:00,58.0,19.0,29.92,ESE,115,0.0,-999.0,22,-99.99,,,-99.99,,2013-06-03 00:51:00,
2013-06-02 19:01:00,58.0,18.0,29.93,ESE,106,1.0,-999.0,21,-99.99,,,-99.99,,2013-06-03 01:01:00,
2013-06-02 19:11:00,58.0,18.0,29.93,ESE,106,1.0,-999.0,21,-99.99,,,-99.99,,2013-06-03 01:11:00,
2013-06-02 19:21:00,57.0,19.0,29.93,North,5,1.0,-999.0,22,-99.99,,,-99.99,,2013-06-03 01:21:00,
2013-06-02 19:32:00,57.0,19.0,29.93,ENE,64,0.0,-999.0,22,-99.99,,,-99.99,,2013-06-03 01:32:00,
2013-06-02 19:42:00,57.0,19.0,29.93,ENE,64,0.0,-999.0,22,-99.99,,,-99.99,,2013-06-03 01:42:00,
2013-06-02 19:52:00,57.0,19.0,29.93,East,84,1.0,-999.0,22,-99.99,,,-99.99,,2013-06-03 01:52:00,
2013-06-02 20:02:00,56.0,19.0,29.94,ESE,115,0.0,-999.0,23,-99.99,,,-99.99,,2013-06-03 02:02:00,
2013-06-02 20:12:00,56.0,19.0,29.94,ESE,115,0.0,-999.0,23,-99.99,,,-99.99,,2013-06-03 02:12:00,
2013-06-02 20:22:00,55.0,19.0,29.93,ESE,103,0.0,-999.0,24,-99.99,,,-99.99,,2013-06-03 02:22:00,
2013-06-02 20:32:00,55.0,20.0,29.93,ESE,102,0.0,-999.0,25,-99.99,,,-99.99,,2013-06-03 02:32:00,
2013-06-02 20:42:00,55.0,20.0,29.93,ESE,102,0.0,-999.0,25,-99.99,,,-99.99,,2013-06-03 02:42:00,
2013-06-02 20:52:00,54.0,22.0,29.92,East,101,0.0,-999.0,28,-99.99,,,-99.99,,2013-06-03 02:52:00,
2013-06-02 21:02:00,52.0,19.0,29.92,East,101,0.0,-999.0,27,-99.99,,,-99.99,,2013-06-03 03:02:00,
2013-06-02 21:12:00,52.0,19.0,29.92,East,101,0.0,-999.0,27,-99.99,,,-99.99,,2013-06-03 03:12:00,
2013-06-02 21:22:00,52.0,19.0,29.92,East,101,0.0,-999.0,27,-99.99,,,-99.99,,2013-06-03 03:22:00,
2013-06-02 21:33:00,51.0,20.0,29.92,East,101,0.0,-999.0,29,-99.99,,,-99.99,,2013-06-03 03:33:00,
2013-06-02 21:43:00,51.0,20.0,29.92,East,101,0.0,-999.0,29,-99.99,,,-99.99,,2013-06-03 03:43:00,
2013-06-02 21:53:00,50.0,19.0,29.92,East,101,0.0,-999.0,29,-99.99,,,-99.99,,2013-06-03 03:53:00,
2013-06-02 22:03:00,49.0,20.0,29.93,East,101,0.0,-999.0,31,-99.99,,,-99.99,,2013-06-03 04:03:00,
2013-06-02 22:13:00,49.0,20.0,29.93,East,101,0.0,-999.0,31,-99.99,,,-99.99,,2013-06-03 04:13:00,
2013-06-02 22:23:00,47.0,19.0,29.92,East,101,0.0,-999.0,33,-99.99,,,-99.99,,2013-06-03 04:23:00,
2013-06-02 22:33:00,46.0,18.0,29.93,East,101,0.0,-999.0,32,-99.99,,,-99.99,,2013-06-03 04:33:00,
2013-06-02 22:42:00,46.0,18.0,29.93,East,101,0.0,-999.0,32,-99.99,,,-99.99,,2013-06-03 04:42:00,
2013-06-02 22:53:00,47.0,19.0,29.93,East,101,0.0,-999.0,33,-99.99,,,-99.99,,2013-06-03 04:53:00,
2013-06-02 23:02:00,46.0,19.0,29.92,East,101,0.0,-999.0,34,-99.99,,,-99.99,,2013-06-03 05:02:00,
2013-06-02 23:12:00,45.0,20.0,29.91,East,101,0.0,-999.0,36,-99.99,,,-99.99,,2013-06-03 05:12:00,
2013-06-02 23:22:00,45.0,20.0,29.91,East,101,0.0,-999.0,36,-99.99,,,-99.99,,2013-06-03 05:22:00,
2013-06-02 23:32:00,44.0,20.0,29.90,East,101,0.0,-999.0,38,-99.99,,,-99.99,,2013-06-03 05:32:00,
2013-06-02 23:42:00,44.0,20.0,29.90,East,101,0.0,-999.0,38,-99.99,,,-99.99,,2013-06-03 05:42:00,
2013-06-02 23:52:00,42.0,19.0,29.89,East,101,0.0,-999.0,40,-99.99,,,-99.99,,2013-06-03 05:52:00,